createdAt,value
2023-04-25T00:01:14.972Z,67.34
2023-04-25T00:11:18.686Z,67.85
2023-04-25T00:21:21.101Z,70.84
2023-04-25T00:31:24.884Z,69.71
2023-04-25T00:41:27.632Z,68.94
2023-04-25T00:51:31.979Z,68.51
2023-04-25T01:01:34.952Z,69.32
2023-04-25T01:11:38.981Z,68.93
2023-04-25T01:21:42.875Z,69.14
2023-04-25T01:31:46.294Z,68.79
2023-04-25T01:41:50.580Z,69.07
2023-04-25T01:51:53.060Z,69.14
2023-04-25T02:01:56.797Z,68.51
2023-04-25T02:11:59.708Z,68.67
2023-04-25T02:22:03.440Z,68.12
2023-04-25T02:32:06.180Z,68.83
2023-04-25T02:42:09.885Z,69.47
2023-04-25T02:52:12.310Z,69.33
2023-04-25T03:02:16.411Z,69.23
2023-04-25T03:12:18.791Z,69.42
2023-04-25T03:22:22.540Z,69.04
2023-04-25T03:32:24.890Z,68.35
2023-04-25T03:42:28.595Z,68.58
2023-04-25T03:52:31.026Z,69.45
2023-04-25T04:02:35.921Z,69.42
2023-04-25T04:12:38.501Z,69.47
2023-04-25T04:22:42.198Z,69.08
2023-04-25T04:32:44.665Z,69.91
2023-04-25T04:42:49.009Z,69.97
2023-04-25T04:52:51.755Z,70.12
2023-04-25T05:02:55.597Z,70.33
2023-04-25T05:12:58.095Z,71.14
2023-04-25T05:23:02.056Z,71.51
2023-04-25T05:33:04.529Z,71.46
2023-04-25T05:43:08.283Z,70.70
2023-04-25T05:53:10.818Z,71.04
2023-04-25T06:03:17.783Z,69.28
2023-04-25T06:23:26.006Z,69.53
2023-04-25T06:33:28.396Z,69.71
2023-04-25T06:43:34.086Z,70.31
2023-04-25T06:53:36.493Z,70.29
2023-04-25T07:03:40.676Z,70.49
2023-04-25T07:13:43.294Z,71.02
2023-04-25T07:23:47.337Z,72.99
2023-04-25T07:33:49.705Z,71.66
2023-04-25T07:43:53.456Z,74.67
2023-04-25T07:53:55.850Z,75.32
2023-04-25T08:03:59.730Z,74.60
2023-04-25T08:14:02.597Z,74.36
2023-04-25T08:24:06.655Z,76.01
2023-04-25T08:34:09.027Z,75.87
2023-04-25T08:44:13.244Z,74.82
2023-04-25T08:54:30.826Z,72.31
2023-04-25T09:04:38.934Z,73.38
2023-04-25T09:14:43.315Z,73.77
2023-04-25T09:24:49.742Z,75.31
2023-04-25T09:34:52.943Z,74.95
2023-04-25T09:44:57.148Z,74.06
2023-04-25T09:54:59.508Z,74.89
2023-04-25T10:05:05.938Z,74.15
2023-04-25T10:15:10.850Z,75.60
2023-04-25T10:25:14.863Z,75.91
2023-04-25T10:35:18.037Z,77.39
2023-04-25T10:45:21.944Z,78.49
2023-04-25T10:55:24.306Z,77.53
2023-04-25T11:05:32.960Z,78.40
2023-04-25T11:15:35.650Z,79.05
2023-04-25T11:25:40.208Z,77.79
2023-04-25T11:35:42.736Z,78.15
2023-04-25T11:45:49.867Z,79.06
2023-04-25T11:55:52.335Z,80.01
2023-04-25T12:06:04.732Z,79.75
2023-04-25T12:16:07.709Z,80.09
2023-04-25T12:26:12.433Z,81.47
2023-04-25T12:36:14.835Z,80.03
2023-04-25T12:46:18.636Z,79.37
2023-04-25T12:56:22.479Z,79.38
2023-04-25T13:06:28.495Z,77.03
2023-04-25T13:16:32.698Z,78.01
2023-04-25T13:26:36.592Z,76.33
2023-04-25T13:36:38.996Z,77.97
2023-04-25T13:46:46.999Z,78.56
2023-04-25T13:56:51.459Z,76.65
2023-04-25T14:06:55.189Z,69.60
2023-04-25T14:16:58.236Z,69.30
2023-04-25T14:27:02.083Z,62.89
2023-04-25T14:37:04.709Z,69.73
2023-04-25T14:47:08.548Z,65.99
2023-04-25T14:57:11.317Z,67.83
2023-04-25T15:07:16.435Z,67.37
2023-04-25T15:17:20.703Z,64.00
2023-04-25T15:27:24.616Z,63.13
2023-04-25T15:37:27.180Z,66.35
2023-04-25T15:47:30.916Z,63.69
2023-04-25T15:57:34.396Z,63.92
2023-04-25T16:07:38.130Z,64.28
2023-04-25T16:17:40.882Z,66.48
2023-04-25T16:27:44.818Z,67.09
2023-04-25T16:37:47.696Z,68.88
2023-04-25T16:47:51.584Z,68.17
2023-04-25T16:57:53.973Z,67.83
2023-04-25T17:07:57.800Z,69.57
2023-04-25T17:18:00.646Z,68.43
2023-04-25T17:28:04.695Z,69.44
2023-04-25T17:38:07.114Z,73.43
2023-04-25T17:48:10.816Z,74.34
2023-04-25T17:58:13.182Z,74.01
2023-04-25T18:08:16.942Z,73.37
2023-04-25T18:18:25.110Z,76.43
2023-04-25T18:28:29.052Z,78.04
2023-04-25T18:38:36.094Z,79.21
2023-04-25T18:48:39.970Z,75.27
2023-04-25T18:58:42.374Z,75.10
2023-04-25T19:08:46.049Z,73.24
2023-04-25T19:18:48.432Z,74.67
2023-04-25T19:29:03.485Z,74.62
2023-04-25T19:39:07.255Z,75.74
2023-04-25T19:49:11.255Z,77.12
2023-04-25T19:59:13.619Z,74.18
2023-04-25T20:09:17.305Z,74.04
2023-04-25T20:19:20.271Z,75.18
2023-04-25T20:29:25.582Z,76.05
2023-04-25T20:39:27.993Z,75.64
2023-04-25T20:49:31.739Z,75.25
2023-04-25T20:59:34.091Z,76.76
2023-04-25T21:09:37.782Z,76.90
2023-04-25T21:19:40.197Z,78.02
2023-04-25T21:29:43.909Z,77.97
2023-04-25T21:39:47.901Z,75.86
2023-04-25T21:49:51.826Z,76.32
2023-04-25T21:59:54.471Z,77.09
2023-04-25T22:09:58.326Z,77.14
2023-04-25T22:20:00.744Z,78.47
2023-04-25T22:30:04.748Z,81.00
2023-04-25T22:40:08.922Z,82.00
2023-04-25T22:50:16.461Z,82.02
2023-04-25T23:00:21.578Z,81.94
2023-04-25T23:10:25.416Z,80.65
2023-04-25T23:20:27.767Z,81.52
2023-04-25T23:30:31.860Z,81.91
2023-04-25T23:40:34.266Z,80.95
2023-04-25T23:50:37.968Z,81.66
